Time;durP1;ratioP1;P1;durP2;ratioP2;P2;SDS_P1;SDS_P2;PMS_P1;PMS_P2;Temp;Humidity;BMP_temperature;BMP_pressure;BME280_temperature;BME280_humidity;BME280_pressure;Samples;Min_cycle;Max_cycle;Signal;HPM_P1;HPM_P2
2023/09/14 00:01:32;;;;;;;8.03;7.23;;;14.70;99.90;;;;;;497516;239;28447;-75
2023/09/14 00:03:34;;;;;;;9.60;8.60;;;14.60;99.90;;;;;;497499;239;28446;-74
2023/09/14 00:05:35;;;;;;;8.40;7.50;;;14.60;99.90;;;;;;497504;239;28491;-75
2023/09/14 00:07:36;;;;;;;8.10;7.30;;;14.60;99.90;;;;;;497509;239;29224;-75
2023/09/14 00:09:43;;;;;;;8.30;7.50;;;14.60;99.90;;;;;;497489;239;29185;-75
2023/09/14 00:11:45;;;;;;;7.70;7.00;;;14.60;99.90;;;;;;497484;239;28398;-75
2023/09/14 00:13:47;;;;;;;8.07;7.23;;;14.50;99.90;;;;;;497470;239;28722;-73
2023/09/14 00:15:48;;;;;;;8.40;7.60;;;14.50;99.90;;;;;;497502;239;28395;-76
2023/09/14 00:17:56;;;;;;;7.23;6.53;;;14.40;99.90;;;;;;497473;239;28450;-75
2023/09/14 00:19:57;;;;;;;8.93;7.77;;;14.40;99.90;;;;;;497486;239;28683;-74
2023/09/14 00:22:02;;;;;;;9.83;7.70;;;14.40;99.90;;;;;;497478;239;28842;-76
2023/09/14 00:24:03;;;;;;;7.20;6.50;;;14.40;99.90;;;;;;497531;239;28413;-76
2023/09/14 00:26:11;;;;;;;8.30;7.50;;;14.30;99.90;;;;;;497473;239;28457;-75
2023/09/14 00:28:11;;;;;;;9.27;7.87;;;14.20;99.90;;;;;;497502;239;28480;-76
2023/09/14 00:30:12;;;;;;;7.73;7.03;;;14.30;99.90;;;;;;497451;239;29121;-73
2023/09/14 00:32:19;;;;;;;8.17;7.33;;;14.20;99.90;;;;;;497513;239;28959;-73
2023/09/14 00:34:21;;;;;;;8.67;7.17;;;14.20;99.90;;;;;;497521;239;28427;-73
2023/09/14 00:36:28;;;;;;;6.60;6.00;;;14.20;99.90;;;;;;497501;239;28405;-73
2023/09/14 00:38:29;;;;;;;6.70;6.10;;;14.20;99.90;;;;;;497508;239;28322;-73
2023/09/14 00:40:36;;;;;;;9.87;8.03;;;14.20;99.90;;;;;;497479;239;28244;-76
2023/09/14 00:42:38;;;;;;;7.17;6.47;;;14.20;99.90;;;;;;497494;239;28300;-75
2023/09/14 00:44:47;;;;;;;9.83;7.70;;;14.10;99.90;;;;;;497447;239;28748;-77
2023/09/14 00:46:48;;;;;;;7.27;6.53;;;14.10;99.90;;;;;;497462;239;28269;-73
2023/09/14 00:48:50;;;;;;;8.13;6.97;;;14.00;99.90;;;;;;497485;239;28420;-76
2023/09/14 00:50:54;;;;;;;7.23;6.53;;;14.00;99.90;;;;;;497472;239;28827;-73
2023/09/14 00:52:56;;;;;;;10.87;6.70;;;14.00;99.90;;;;;;497447;239;28274;-71
2023/09/14 00:54:57;;;;;;;7.03;6.37;;;14.00;99.90;;;;;;497415;239;28471;-73
2023/09/14 00:56:58;;;;;;;6.30;5.67;;;14.00;99.90;;;;;;497497;239;28801;-75
2023/09/14 00:58:59;;;;;;;6.63;5.67;;;14.00;99.90;;;;;;497491;238;28723;-73
2023/09/14 01:01:07;;;;;;;6.67;5.80;;;14.00;99.90;;;;;;497493;239;28653;-76
2023/09/14 01:03:08;;;;;;;5.83;5.33;;;14.10;99.90;;;;;;497466;239;28060;-73
2023/09/14 01:05:09;;;;;;;6.90;5.70;;;14.10;99.90;;;;;;497466;239;27986;-74
2023/09/14 01:07:15;;;;;;;7.00;5.50;;;14.20;99.90;;;;;;497508;239;28690;-72
2023/09/14 01:09:14;;;;;;;8.20;5.23;;;14.20;99.90;;;;;;497481;239;28492;-72
2023/09/14 01:11:16;;;;;;;5.33;4.83;;;14.10;99.90;;;;;;497339;239;28279;-74
2023/09/14 01:13:18;;;;;;;8.67;5.90;;;14.10;99.90;;;;;;497454;239;29214;-74
2023/09/14 01:15:22;;;;;;;5.27;4.77;;;14.10;99.90;;;;;;497537;239;28267;-73
2023/09/14 01:17:23;;;;;;;7.73;6.93;;;14.10;99.90;;;;;;497520;239;28367;-72
2023/09/14 01:19:25;;;;;;;5.77;4.97;;;14.00;99.90;;;;;;497507;239;28413;-74
2023/09/14 01:21:26;;;;;;;8.83;6.50;;;14.00;99.90;;;;;;497490;239;28467;-74
2023/09/14 01:23:28;;;;;;;7.17;6.10;;;14.00;99.90;;;;;;497546;239;28855;-74
2023/09/14 01:25:32;;;;;;;7.43;5.60;;;14.00;99.90;;;;;;497522;239;28655;-74
2023/09/14 01:27:33;;;;;;;6.80;6.10;;;13.90;99.90;;;;;;497508;239;28506;-74
2023/09/14 01:29:36;;;;;;;8.07;6.20;;;13.90;99.90;;;;;;497481;239;28464;-73
2023/09/14 01:31:38;;;;;;;6.33;5.10;;;13.90;99.90;;;;;;497513;239;28425;-74
2023/09/14 01:33:48;;;;;;;8.50;4.90;;;13.90;99.90;;;;;;497489;239;28817;-73
2023/09/14 01:35:46;;;;;;;4.87;4.03;;;14.00;99.90;;;;;;497503;239;28168;-73
2023/09/14 01:37:53;;;;;;;4.80;4.30;;;13.90;99.90;;;;;;497475;239;28792;-76
2023/09/14 01:39:54;;;;;;;4.53;4.13;;;14.00;99.90;;;;;;497530;239;28289;-73
2023/09/14 01:41:57;;;;;;;5.07;4.57;;;14.00;99.90;;;;;;497467;239;28315;-74
2023/09/14 01:43:57;;;;;;;5.20;4.23;;;14.00;99.90;;;;;;497536;239;28723;-74
2023/09/14 01:46:05;;;;;;;6.10;4.97;;;13.90;99.90;;;;;;497519;239;28899;-73
2023/09/14 01:48:06;;;;;;;5.60;5.00;;;13.90;99.90;;;;;;497528;239;28399;-72
2023/09/14 01:50:16;;;;;;;5.40;4.90;;;13.80;99.90;;;;;;497488;239;28301;-73
2023/09/14 01:52:18;;;;;;;6.87;5.40;;;13.80;99.90;;;;;;497409;239;28388;-74
2023/09/14 01:54:19;;;;;;;6.00;5.07;;;13.70;99.90;;;;;;497496;239;28417;-73
2023/09/14 01:56:26;;;;;;;6.07;4.90;;;13.70;99.90;;;;;;497488;239;28617;-72
2023/09/14 01:58:28;;;;;;;5.27;4.77;;;13.70;99.90;;;;;;497507;239;28316;-75
2023/09/14 02:00:29;;;;;;;5.30;4.80;;;13.60;99.90;;;;;;497504;239;28176;-75
2023/09/14 02:02:30;;;;;;;4.80;4.40;;;13.60;99.90;;;;;;497582;239;28896;-73
2023/09/14 02:04:31;;;;;;;7.70;5.00;;;13.60;99.90;;;;;;497567;239;28900;-76
2023/09/14 02:06:39;;;;;;;6.70;5.00;;;13.50;99.90;;;;;;497546;239;28643;-73
2023/09/14 02:08:40;;;;;;;5.03;4.50;;;13.50;99.90;;;;;;497580;239;28181;-74
2023/09/14 02:10:44;;;;;;;5.40;4.77;;;13.50;99.90;;;;;;497546;239;28220;-73
2023/09/14 02:12:47;;;;;;;5.37;4.63;;;13.50;99.90;;;;;;497553;239;28170;-73
2023/09/14 02:16:51;;;;;;;5.63;5.13;;;13.40;99.90;;;;;;497589;239;28211;-74
2023/09/14 02:18:52;;;;;;;4.53;4.13;;;13.40;99.90;;;;;;497555;239;28256;-72
2023/09/14 02:20:53;;;;;;;7.30;4.10;;;13.40;99.90;;;;;;497344;239;28675;-73
2023/09/14 02:22:55;;;;;;;5.40;4.20;;;13.40;99.90;;;;;;497537;239;29443;-73
2023/09/14 02:24:56;;;;;;;4.63;4.23;;;13.40;99.90;;;;;;497578;239;28606;-73
2023/09/14 02:27:00;;;;;;;4.50;3.67;;;13.30;99.90;;;;;;497555;239;28907;-73
2023/09/14 02:29:03;;;;;;;4.50;4.10;;;13.30;99.90;;;;;;497544;239;28204;-73
2023/09/14 02:31:13;;;;;;;4.27;3.20;;;;;;;;;;497495;239;28090;-73
2023/09/14 02:33:14;;;;;;;3.87;3.50;;;13.30;99.90;;;;;;497545;238;26810;-72
2023/09/14 02:35:16;;;;;;;4.93;4.10;;;13.30;99.90;;;;;;497498;239;28681;-73
2023/09/14 02:37:19;;;;;;;5.40;3.57;;;13.30;99.90;;;;;;497495;239;28689;-71
2023/09/14 02:39:20;;;;;;;4.67;4.17;;;13.20;99.90;;;;;;497517;239;28153;-73
2023/09/14 02:41:28;;;;;;;5.20;4.67;;;13.20;99.90;;;;;;497503;239;28084;-76
2023/09/14 02:43:29;;;;;;;5.00;4.50;;;13.00;99.90;;;;;;497475;239;28141;-73
2023/09/14 02:45:31;;;;;;;7.63;6.33;;;13.00;99.90;;;;;;497481;239;28144;-74
2023/09/14 02:47:32;;;;;;;7.83;6.00;;;12.90;99.90;;;;;;497542;239;28213;-73
2023/09/14 02:51:39;;;;;;;8.73;4.60;;;;;;;;;;497494;239;28178;-73
2023/09/14 02:53:40;;;;;;;4.77;4.30;;;12.80;99.90;;;;;;497514;238;26502;-73
2023/09/14 02:55:42;;;;;;;5.20;4.63;;;12.90;99.90;;;;;;497522;239;28087;-75
2023/09/14 02:57:43;;;;;;;5.27;3.90;;;12.80;99.90;;;;;;497476;239;28730;-73
2023/09/14 02:59:50;;;;;;;6.33;4.90;;;12.80;99.90;;;;;;497467;239;28683;-74
2023/09/14 03:01:51;;;;;;;5.47;3.97;;;12.80;99.90;;;;;;497525;239;28756;-74
2023/09/14 03:03:53;;;;;;;5.17;4.30;;;12.70;99.90;;;;;;497510;239;28258;-74
2023/09/14 03:05:54;;;;;;;5.80;4.23;;;12.70;99.90;;;;;;497502;239;28083;-73
2023/09/14 03:07:56;;;;;;;5.07;4.57;;;12.70;99.90;;;;;;497457;239;28865;-73
2023/09/14 03:09:57;;;;;;;4.23;3.83;;;12.60;99.90;;;;;;497495;239;28558;-73
2023/09/14 03:12:04;;;;;;;4.03;3.63;;;12.60;99.90;;;;;;497530;239;28672;-73
2023/09/14 03:14:05;;;;;;;3.93;3.63;;;12.60;99.90;;;;;;497506;239;28181;-72
2023/09/14 03:16:19;;;;;;;4.20;3.50;;;12.60;99.90;;;;;;497482;239;28715;-73
2023/09/14 03:18:20;;;;;;;8.23;4.37;;;12.60;99.90;;;;;;497500;239;28746;-72
2023/09/14 03:20:24;;;;;;;4.07;3.60;;;12.60;99.90;;;;;;497494;239;28680;-73
2023/09/14 03:22:26;;;;;;;4.90;4.13;;;12.60;99.90;;;;;;497513;239;28194;-78
2023/09/14 03:24:27;;;;;;;5.10;3.87;;;12.50;99.90;;;;;;497531;239;28806;-73
2023/09/14 03:26:28;;;;;;;4.40;3.60;;;12.50;99.90;;;;;;497496;239;28786;-74
2023/09/14 03:28:29;;;;;;;3.17;2.90;;;12.50;99.90;;;;;;497474;239;28392;-72
2023/09/14 03:30:33;;;;;;;3.20;3.00;;;12.40;99.90;;;;;;497477;239;29008;-73
2023/09/14 03:32:33;;;;;;;8.60;3.20;;;12.40;99.90;;;;;;497499;239;28397;-72
2023/09/14 03:34:34;;;;;;;3.63;3.30;;;12.40;99.90;;;;;;497515;239;29193;-73
2023/09/14 03:36:38;;;;;;;3.67;2.60;;;12.40;99.90;;;;;;497496;239;28648;-73
2023/09/14 03:38:40;;;;;;;3.43;3.13;;;;;;;;;;497482;239;28175;-77
2023/09/14 03:40:47;;;;;;;3.63;2.90;;;12.20;99.90;;;;;;497537;238;26815;-72
2023/09/14 03:42:48;;;;;;;4.03;3.07;;;12.30;99.90;;;;;;497525;239;28114;-74
2023/09/14 03:44:50;;;;;;;3.33;3.03;;;12.20;99.90;;;;;;497390;239;28289;-73
2023/09/14 03:46:51;;;;;;;4.00;3.20;;;12.20;99.90;;;;;;497487;239;28793;-73
2023/09/14 03:50:59;;;;;;;3.90;3.20;;;12.20;99.90;;;;;;497539;239;28284;-73
2023/09/14 03:53:16;;;;;;;3.30;3.00;;;12.10;99.90;;;;;;497493;239;28452;-73
2023/09/14 03:55:17;;;;;;;3.40;3.10;;;12.10;99.90;;;;;;497492;239;28188;-73
2023/09/14 03:57:30;;;;;;;3.43;3.03;;;12.10;99.90;;;;;;497530;239;27956;-73
2023/09/14 03:59:32;;;;;;;3.67;2.47;;;12.10;99.90;;;;;;497522;239;28495;-74
2023/09/14 04:01:48;;;;;;;2.80;2.60;;;12.10;99.90;;;;;;497538;239;28780;-73
2023/09/14 04:03:49;;;;;;;2.90;2.60;;;12.10;99.90;;;;;;497384;239;28745;-74
2023/09/14 04:06:00;;;;;;;4.13;3.60;;;12.00;99.90;;;;;;497528;239;28310;-73
2023/09/14 04:08:01;;;;;;;3.30;3.00;;;12.00;99.90;;;;;;497499;239;27965;-73
2023/09/14 04:10:11;;;;;;;4.63;3.50;;;12.00;99.90;;;;;;497495;239;28330;-73
2023/09/14 04:12:09;;;;;;;5.47;3.50;;;11.90;99.90;;;;;;497414;239;28292;-74
2023/09/14 04:16:15;;;;;;;4.73;3.90;;;11.80;99.90;;;;;;497523;239;28698;-75
2023/09/14 04:18:25;;;;;;;4.40;3.67;;;11.80;99.90;;;;;;497493;239;28349;-73
2023/09/14 04:20:27;;;;;;;5.23;3.20;;;11.80;99.90;;;;;;497478;239;28405;-75
2023/09/14 04:22:47;;;;;;;3.83;3.40;;;11.80;99.90;;;;;;497546;239;28671;-73
2023/09/14 04:24:47;;;;;;;4.20;3.53;;;11.80;99.90;;;;;;497515;239;28223;-73
2023/09/14 04:26:49;;;;;;;3.90;3.50;;;11.70;99.90;;;;;;497471;239;28386;-73
2023/09/14 04:28:50;;;;;;;4.47;3.90;;;11.70;99.90;;;;;;497514;239;28469;-73
2023/09/14 04:31:02;;;;;;;4.00;3.60;;;11.60;99.90;;;;;;497477;239;28399;-73
2023/09/14 04:33:02;;;;;;;3.47;3.17;;;11.60;99.90;;;;;;497507;239;28024;-73
2023/09/14 04:35:04;;;;;;;4.33;3.63;;;;;;;;;;497573;239;28209;-73
2023/09/14 04:37:05;;;;;;;4.10;3.30;;;11.50;99.90;;;;;;489344;238;27121;-73
2023/09/14 04:39:06;;;;;;;6.60;3.50;;;11.60;99.90;;;;;;484332;244;28105;-75
2023/09/14 04:41:08;;;;;;;3.40;3.10;;;11.60;99.90;;;;;;484319;244;28355;-73
2023/09/14 04:43:09;;;;;;;3.33;3.03;;;11.60;99.90;;;;;;484368;244;28459;-73
2023/09/14 04:45:19;;;;;;;3.40;3.10;;;11.70;99.90;;;;;;484368;244;28870;-73
2023/09/14 04:47:21;;;;;;;4.37;3.30;;;11.70;99.90;;;;;;484338;244;28309;-73
2023/09/14 04:49:25;;;;;;;4.57;3.73;;;11.70;99.90;;;;;;484409;244;28471;-73
2023/09/14 04:51:26;;;;;;;3.80;3.17;;;11.60;99.90;;;;;;484385;244;28301;-73
2023/09/14 04:53:28;;;;;;;3.33;3.03;;;11.60;99.90;;;;;;484359;244;28205;-74
2023/09/14 04:55:29;;;;;;;4.93;3.40;;;11.60;99.90;;;;;;484296;244;29555;-73
2023/09/14 04:57:30;;;;;;;4.67;3.17;;;11.60;99.90;;;;;;484351;244;28756;-73
2023/09/14 04:59:32;;;;;;;6.17;3.30;;;11.60;99.90;;;;;;484315;244;28151;-73
2023/09/14 05:01:33;;;;;;;3.50;2.90;;;11.60;99.90;;;;;;484333;239;28308;-72
2023/09/14 05:03:35;;;;;;;3.53;3.20;;;11.60;99.90;;;;;;484349;244;28504;-73
2023/09/14 05:05:35;;;;;;;2.90;2.70;;;11.50;99.90;;;;;;484376;244;28200;-73
2023/09/14 05:07:40;;;;;;;3.40;2.97;;;11.50;99.90;;;;;;484065;244;28380;-73
2023/09/14 05:09:38;;;;;;;3.23;2.93;;;11.50;99.90;;;;;;484034;244;28090;-73
2023/09/14 05:11:49;;;;;;;4.20;2.97;;;11.50;99.90;;;;;;484338;244;28518;-73
2023/09/14 05:13:51;;;;;;;3.43;3.00;;;11.40;99.90;;;;;;484380;244;28104;-73
2023/09/14 05:15:53;;;;;;;4.67;2.90;;;11.50;99.90;;;;;;484377;244;28237;-73
2023/09/14 05:17:54;;;;;;;3.70;3.00;;;11.40;99.90;;;;;;484356;244;28137;-75
2023/09/14 05:20:11;;;;;;;3.97;2.63;;;11.40;99.90;;;;;;484418;244;28201;-74
2023/09/14 05:22:12;;;;;;;2.67;2.47;;;11.40;99.90;;;;;;487360;243;28277;-74
2023/09/14 05:24:13;;;;;;;3.00;2.57;;;11.40;99.90;;;;;;487299;244;28149;-74
2023/09/14 05:28:38;;;;;;;3.60;2.87;;;11.40;99.90;;;;;;487357;243;28344;-73
2023/09/14 05:30:39;;;;;;;3.67;3.00;;;11.30;99.90;;;;;;488475;241;28135;-73
2023/09/14 05:32:41;;;;;;;4.93;2.63;;;11.30;99.90;;;;;;493011;241;28121;-73
2023/09/14 05:34:41;;;;;;;3.33;3.00;;;11.30;99.90;;;;;;493051;240;28240;-73
2023/09/14 05:36:42;;;;;;;2.80;2.47;;;11.30;99.90;;;;;;492940;241;28765;-73
2023/09/14 05:38:46;;;;;;;4.20;2.80;;;;;;;;;;493092;241;28873;-74
2023/09/14 05:40:46;;;;;;;2.93;2.63;;;11.20;99.90;;;;;;493032;240;27176;-73
2023/09/14 05:42:50;;;;;;;2.83;2.53;;;11.20;99.90;;;;;;492930;241;28782;-75
2023/09/14 05:44:51;;;;;;;3.33;2.90;;;11.30;99.90;;;;;;492967;241;28391;-73
2023/09/14 05:46:52;;;;;;;2.70;2.50;;;11.30;99.90;;;;;;490187;241;28468;-73
2023/09/14 05:51:03;;;;;;;4.37;2.63;;;11.20;99.90;;;;;;489233;241;28288;-73
2023/09/14 05:53:10;;;;;;;4.03;2.80;;;11.20;99.90;;;;;;489214;242;28191;-73
2023/09/14 05:55:11;;;;;;;2.93;2.63;;;11.20;99.90;;;;;;489280;241;28148;-73
2023/09/14 05:57:16;;;;;;;4.13;3.43;;;11.30;99.90;;;;;;489282;241;28282;-73
2023/09/14 05:59:17;;;;;;;3.67;3.37;;;11.30;99.90;;;;;;489292;241;28163;-73
2023/09/14 06:03:41;;;;;;;3.30;2.90;;;11.40;99.90;;;;;;492951;240;28707;-75
2023/09/14 06:05:42;;;;;;;3.23;2.93;;;11.30;99.90;;;;;;492933;241;28541;-74
2023/09/14 06:07:44;;;;;;;3.07;2.57;;;11.30;99.90;;;;;;492958;241;28304;-75
2023/09/14 06:09:57;;;;;;;3.73;2.70;;;11.30;99.90;;;;;;492950;241;28937;-74
2023/09/14 06:11:59;;;;;;;4.27;2.70;;;11.40;99.90;;;;;;492953;241;28704;-73
2023/09/14 06:14:06;;;;;;;5.43;3.83;;;11.50;99.90;;;;;;492931;241;28626;-74
2023/09/14 06:16:07;;;;;;;5.93;3.37;;;11.70;99.90;;;;;;492968;241;28209;-74
2023/09/14 06:18:14;;;;;;;4.43;3.20;;;11.80;99.90;;;;;;492945;241;28157;-73
2023/09/14 06:20:15;;;;;;;6.43;3.37;;;11.80;99.90;;;;;;492913;241;28332;-73
2023/09/14 06:22:23;;;;;;;7.97;3.50;;;11.80;99.90;;;;;;492930;241;29021;-74
2023/09/14 06:24:24;;;;;;;4.33;3.03;;;11.90;99.90;;;;;;492906;241;28507;-74
2023/09/14 06:26:25;;;;;;;4.73;3.27;;;12.10;99.90;;;;;;492850;241;28468;-73
2023/09/14 06:28:26;;;;;;;4.90;3.13;;;12.20;99.90;;;;;;492920;241;28751;-74
2023/09/14 06:30:28;;;;;;;7.33;3.80;;;12.30;99.90;;;;;;492923;241;28906;-74
2023/09/14 06:32:36;;;;;;;6.10;3.30;;;12.30;99.90;;;;;;492904;241;28969;-75
2023/09/14 06:34:37;;;;;;;4.73;3.17;;;12.40;99.90;;;;;;492780;241;28640;-73
2023/09/14 06:36:39;;;;;;;6.57;3.53;;;12.50;99.90;;;;;;492857;241;28432;-74
2023/09/14 06:38:48;;;;;;;5.27;3.07;;;12.50;99.90;;;;;;492899;241;28565;-74
2023/09/14 06:40:50;;;;;;;4.60;2.80;;;12.60;99.90;;;;;;492657;241;28487;-73
2023/09/14 06:43:04;;;;;;;8.80;3.60;;;12.70;99.90;;;;;;484331;245;29240;-73
2023/09/14 06:45:06;;;;;;;4.73;2.90;;;12.70;99.90;;;;;;484305;245;28031;-73
2023/09/14 06:47:05;;;;;;;9.43;3.40;;;12.70;99.90;;;;;;484222;245;28599;-73
2023/09/14 06:49:07;;;;;;;7.53;4.00;;;12.80;99.90;;;;;;484334;245;28843;-75
2023/09/14 06:51:08;;;;;;;5.73;3.07;;;12.80;99.90;;;;;;484312;245;28805;-74
2023/09/14 06:53:09;;;;;;;5.93;3.33;;;12.90;99.90;;;;;;484288;245;28850;-73
2023/09/14 06:55:14;;;;;;;4.67;3.60;;;12.90;99.90;;;;;;484284;245;28244;-73
2023/09/14 06:57:17;;;;;;;5.83;3.27;;;13.00;99.90;;;;;;484347;245;28744;-76
2023/09/14 06:59:24;;;;;;;5.70;3.00;;;13.00;99.90;;;;;;484354;245;28760;-74
2023/09/14 07:01:25;;;;;;;6.53;3.60;;;13.10;99.90;;;;;;484343;245;28786;-73
2023/09/14 07:03:35;;;;;;;3.33;2.70;;;13.20;99.90;;;;;;484320;245;28811;-75
2023/09/14 07:05:37;;;;;;;8.63;3.20;;;13.30;99.90;;;;;;484271;245;28148;-75
2023/09/14 07:07:43;;;;;;;9.30;3.20;;;13.40;99.90;;;;;;484319;245;28139;-74
2023/09/14 07:09:44;;;;;;;7.60;3.60;;;13.50;99.90;;;;;;484323;245;28218;-72
2023/09/14 07:11:52;;;;;;;3.53;3.20;;;13.60;99.90;;;;;;484351;245;28134;-73
2023/09/14 07:13:53;;;;;;;9.20;3.30;;;13.70;99.90;;;;;;484300;245;28233;-76
2023/09/14 07:16:03;;;;;;;5.37;3.27;;;13.80;99.90;;;;;;490701;239;28345;-73
2023/09/14 07:18:02;;;;;;;4.57;2.83;;;13.80;99.90;;;;;;492522;240;28247;-73
2023/09/14 07:20:04;;;;;;;8.27;3.60;;;13.90;99.90;;;;;;485684;245;28266;-75
2023/09/14 07:22:04;;;;;;;6.90;3.20;;;14.00;99.90;;;;;;482038;245;28579;-76
2023/09/14 07:24:11;;;;;;;4.30;2.67;;;14.00;99.90;;;;;;478945;248;28619;-75
2023/09/14 07:26:12;;;;;;;5.70;2.90;;;13.90;99.90;;;;;;478910;248;28186;-73
2023/09/14 07:28:14;;;;;;;4.90;2.67;;;13.90;99.90;;;;;;479032;248;28232;-73
2023/09/14 07:30:15;;;;;;;6.50;2.43;;;13.80;99.90;;;;;;478962;248;28682;-74
2023/09/14 07:32:17;;;;;;;5.07;2.97;;;13.80;99.90;;;;;;478958;248;29030;-75
2023/09/14 07:34:19;;;;;;;6.57;2.80;;;13.80;99.90;;;;;;479043;248;28829;-74
2023/09/14 07:36:20;;;;;;;4.93;2.80;;;14.00;99.90;;;;;;478955;248;28296;-73
2023/09/14 07:38:21;;;;;;;14.57;3.30;;;14.00;99.90;;;;;;478950;248;28117;-73
2023/09/14 07:40:23;;;;;;;5.57;2.83;;;14.10;99.90;;;;;;478962;248;28722;-73
2023/09/14 07:42:24;;;;;;;6.20;2.77;;;14.10;99.90;;;;;;479005;248;28247;-73
2023/09/14 07:44:29;;;;;;;5.70;3.00;;;14.20;99.90;;;;;;478986;248;28478;-73
2023/09/14 07:46:30;;;;;;;6.00;2.83;;;14.30;99.90;;;;;;478858;248;29243;-73
2023/09/14 07:48:31;;;;;;;6.97;3.03;;;14.40;99.90;;;;;;478899;248;29696;-73
2023/09/14 07:50:33;;;;;;;10.67;2.50;;;14.40;99.90;;;;;;478915;248;28868;-75
2023/09/14 07:52:37;;;;;;;8.60;3.17;;;14.50;99.90;;;;;;478981;248;28544;-73
2023/09/14 07:54:38;;;;;;;4.20;2.80;;;14.60;99.90;;;;;;478937;248;28288;-73
2023/09/14 07:56:47;;;;;;;4.80;3.20;;;14.60;99.90;;;;;;478909;248;28524;-74
2023/09/14 07:58:47;;;;;;;4.57;2.60;;;14.70;99.90;;;;;;478954;248;28460;-73
2023/09/14 08:00:50;;;;;;;7.63;2.87;;;14.70;99.90;;;;;;478932;248;28456;-73
2023/09/14 08:02:51;;;;;;;5.30;2.60;;;14.70;99.90;;;;;;479001;248;28983;-75
2023/09/14 08:04:58;;;;;;;5.10;2.20;;;14.80;99.90;;;;;;478976;248;29381;-73
2023/09/14 08:06:59;;;;;;;2.70;2.20;;;14.90;99.90;;;;;;476796;244;28423;-73
2023/09/14 08:09:10;;;;;;;3.53;2.57;;;14.90;99.90;;;;;;472638;251;28618;-75
2023/09/14 08:11:11;;;;;;;3.33;2.10;;;14.90;99.90;;;;;;472663;251;28478;-73
2023/09/14 08:13:12;;;;;;;4.20;2.27;;;15.00;99.90;;;;;;478502;248;28962;-73
2023/09/14 08:15:17;;;;;;;4.13;2.60;;;15.00;99.90;;;;;;478947;248;29282;-76
2023/09/14 08:17:18;;;;;;;2.67;2.10;;;14.90;99.90;;;;;;478925;248;29370;-73
2023/09/14 08:19:20;;;;;;;2.60;2.40;;;14.90;99.90;;;;;;478955;248;30844;-75
2023/09/14 08:21:21;;;;;;;6.37;2.40;;;15.00;99.90;;;;;;478910;248;28747;-73
2023/09/14 08:23:22;;;;;;;5.23;2.73;;;15.10;99.90;;;;;;478967;248;28944;-75
2023/09/14 08:25:24;;;;;;;3.77;2.20;;;15.10;99.90;;;;;;478935;248;28324;-76
2023/09/14 08:27:25;;;;;;;4.37;2.50;;;15.10;99.90;;;;;;478949;248;28781;-73
2023/09/14 08:29:26;;;;;;;4.00;2.27;;;15.20;99.90;;;;;;478972;248;28782;-74
2023/09/14 08:31:31;;;;;;;9.03;3.10;;;15.30;99.90;;;;;;478968;248;28455;-75
2023/09/14 08:33:32;;;;;;;3.50;2.40;;;15.30;99.90;;;;;;478980;248;28860;-74
2023/09/14 08:35:34;;;;;;;3.00;2.50;;;15.30;99.90;;;;;;478975;248;28763;-73
2023/09/14 08:37:38;;;;;;;6.60;2.97;;;15.40;99.90;;;;;;478923;248;29321;-75
2023/09/14 08:39:39;;;;;;;4.10;2.73;;;15.40;99.90;;;;;;479029;248;28822;-75
2023/09/14 08:41:41;;;;;;;3.93;2.33;;;15.50;99.90;;;;;;478924;248;28819;-75
2023/09/14 08:43:41;;;;;;;4.10;2.70;;;15.50;99.90;;;;;;478986;248;29231;-72
2023/09/14 08:45:46;;;;;;;4.50;2.30;;;15.60;99.90;;;;;;479005;248;29267;-75
2023/09/14 08:47:47;;;;;;;2.87;2.30;;;15.60;99.90;;;;;;479007;248;28795;-75
2023/09/14 08:49:50;;;;;;;4.90;2.50;;;15.60;99.90;;;;;;478965;248;28753;-75
2023/09/14 08:51:51;;;;;;;6.67;2.47;;;15.60;99.90;;;;;;478894;248;28791;-76
2023/09/14 08:53:59;;;;;;;4.50;2.70;;;15.70;99.90;;;;;;478892;248;29274;-73
2023/09/14 08:56:00;;;;;;;4.27;2.30;;;15.70;99.90;;;;;;478947;248;28859;-74
2023/09/14 08:58:01;;;;;;;7.70;2.80;;;15.70;99.90;;;;;;478925;248;28818;-73
2023/09/14 09:00:26;;;;;;;3.97;2.10;;;15.80;99.90;;;;;;478913;248;30040;-76
2023/09/14 09:02:06;;;;;;;12.37;3.10;;;15.90;99.90;;;;;;477522;248;28834;-75
2023/09/14 09:04:07;;;;;;;3.37;2.73;;;16.00;99.90;;;;;;478964;248;29286;-72
2023/09/14 09:06:08;;;;;;;4.60;2.63;;;16.00;99.90;;;;;;478906;248;29210;-76
2023/09/14 09:08:09;;;;;;;5.07;3.03;;;15.90;99.90;;;;;;478920;248;29262;-74
2023/09/14 09:10:11;;;;;;;5.97;2.60;;;16.00;99.90;;;;;;479001;248;29443;-72
2023/09/14 09:12:12;;;;;;;3.00;2.40;;;16.20;99.90;;;;;;478890;248;28731;-75
2023/09/14 09:14:13;;;;;;;6.73;2.77;;;16.30;99.90;;;;;;478853;248;28761;-73
2023/09/14 09:16:15;;;;;;;5.30;2.63;;;16.30;99.90;;;;;;478921;248;28786;-75
2023/09/14 09:18:16;;;;;;;7.40;2.40;;;16.20;99.90;;;;;;478933;248;28791;-76
2023/09/14 09:22:21;;;;;;;8.73;3.00;;;16.30;99.90;;;;;;478907;248;28796;-75
2023/09/14 09:24:28;;;;;;;3.00;2.30;;;16.30;99.90;;;;;;478925;248;28774;-75
2023/09/14 09:26:30;;;;;;;9.47;2.57;;;16.30;99.90;;;;;;478858;248;28881;-76
2023/09/14 09:28:31;;;;;;;2.80;2.30;;;16.30;99.90;;;;;;478699;248;28876;-75
2023/09/14 09:30:35;;;;;;;4.43;2.57;;;16.30;99.90;;;;;;478778;248;29205;-74
2023/09/14 09:32:37;;;;;;;2.23;2.03;;;16.40;99.90;;;;;;478672;248;29309;-75
2023/09/14 09:34:41;;;;;;;5.83;2.50;;;16.40;99.90;;;;;;478851;248;29290;-76
2023/09/14 09:36:42;;;;;;;4.77;2.90;;;16.50;99.90;;;;;;478991;248;28827;-74
2023/09/14 09:38:45;;;;;;;4.97;2.50;;;16.50;99.90;;;;;;479001;248;29380;-75
2023/09/14 09:40:44;;;;;;;3.23;2.50;;;16.70;99.90;;;;;;478907;248;29180;-75
2023/09/14 09:42:46;;;;;;;3.10;2.10;;;16.70;99.90;;;;;;478955;248;29276;-74
2023/09/14 09:44:53;;;;;;;6.00;2.80;;;16.70;99.90;;;;;;478968;248;31200;-76
2023/09/14 09:46:54;;;;;;;3.10;2.03;;;16.80;99.90;;;;;;478974;248;28839;-75
2023/09/14 09:48:55;;;;;;;10.20;3.00;;;16.80;99.90;;;;;;479017;248;28781;-75
2023/09/14 09:50:57;;;;;;;3.77;2.30;;;16.80;99.90;;;;;;478980;248;29332;-75
2023/09/14 09:53:07;;;;;;;3.63;2.53;;;16.90;99.90;;;;;;478913;248;29249;-75
2023/09/14 09:55:08;;;;;;;5.40;2.63;;;16.90;99.90;;;;;;479000;248;28833;-76
2023/09/14 09:57:10;;;;;;;2.60;2.40;;;17.00;99.90;;;;;;478924;248;28786;-75
2023/09/14 09:59:13;;;;;;;5.37;2.80;;;17.00;99.90;;;;;;478979;248;29188;-75
2023/09/14 10:01:12;;;;;;;3.60;2.60;;;17.00;99.90;;;;;;478945;248;29271;-75
2023/09/14 10:03:19;;;;;;;9.80;2.97;;;17.00;99.90;;;;;;478966;248;29296;-76
2023/09/14 10:05:21;;;;;;;7.63;3.00;;;17.10;99.90;;;;;;478993;248;29344;-75
2023/09/14 10:07:31;;;;;;;5.37;2.70;;;17.10;99.90;;;;;;478900;248;28815;-75
2023/09/14 10:09:32;;;;;;;4.87;3.20;;;17.00;99.90;;;;;;478950;248;28787;-74
2023/09/14 10:11:33;;;;;;;2.60;2.40;;;16.90;99.90;;;;;;478839;248;28746;-75
2023/09/14 10:13:34;;;;;;;5.20;3.10;;;17.00;99.90;;;;;;478975;248;29306;-75
2023/09/14 10:15:42;;;;;;;3.50;2.60;;;17.10;99.90;;;;;;478942;248;29364;-75
2023/09/14 10:17:45;;;;;;;8.43;3.33;;;17.20;99.90;;;;;;478924;248;28820;-75
2023/09/14 10:19:48;;;;;;;2.83;2.57;;;17.30;99.90;;;;;;478967;248;28856;-75
2023/09/14 10:21:49;;;;;;;5.43;2.53;;;17.30;99.90;;;;;;479003;248;28857;-75
2023/09/14 10:23:51;;;;;;;4.03;2.53;;;17.30;99.90;;;;;;478821;248;28774;-75
2023/09/14 10:25:51;;;;;;;4.67;2.97;;;17.40;99.90;;;;;;478918;248;29985;-76
2023/09/14 10:27:53;;;;;;;3.20;2.23;;;17.70;99.90;;;;;;478964;248;29356;-75
2023/09/14 10:29:54;;;;;;;3.50;2.37;;;17.80;99.90;;;;;;478943;248;29311;-76
2023/09/14 10:32:01;;;;;;;7.00;3.30;;;17.60;99.90;;;;;;478961;248;28778;-73
2023/09/14 10:34:03;;;;;;;5.93;3.00;;;17.50;99.90;;;;;;478970;248;28912;-74
2023/09/14 10:36:04;;;;;;;3.73;2.50;;;17.60;99.90;;;;;;479005;248;28877;-73
2023/09/14 10:38:05;;;;;;;5.87;2.60;;;17.60;99.90;;;;;;478906;248;29345;-72
2023/09/14 10:40:11;;;;;;;3.07;2.63;;;17.70;99.90;;;;;;478909;248;29281;-75
2023/09/14 10:42:12;;;;;;;3.57;2.70;;;17.90;99.90;;;;;;478914;248;28762;-76
2023/09/14 10:44:28;;;;;;;3.23;2.37;;;17.80;99.90;;;;;;478983;248;28754;-75
2023/09/14 10:46:29;;;;;;;4.43;2.70;;;17.70;99.90;;;;;;478931;248;28755;-75
2023/09/14 10:48:32;;;;;;;3.83;2.97;;;17.80;99.90;;;;;;478949;248;28793;-74
2023/09/14 10:50:33;;;;;;;3.07;2.40;;;18.10;99.90;;;;;;479008;248;28780;-75
2023/09/14 10:52:42;;;;;;;4.77;2.20;;;17.90;99.90;;;;;;478937;248;28782;-75
2023/09/14 10:54:42;;;;;;;3.70;2.63;;;18.00;99.90;;;;;;478961;248;28842;-74
2023/09/14 10:56:49;;;;;;;3.13;2.83;;;18.10;99.90;;;;;;478990;248;28761;-74
2023/09/14 10:58:51;;;;;;;3.53;2.23;;;18.00;99.90;;;;;;478981;248;28888;-75